Time;durP1;ratioP1;P1;durP2;ratioP2;P2;SDS_P1;SDS_P2;PMS_P1;PMS_P2;Temp;Humidity;BMP_temperature;BMP_pressure;BME280_temperature;BME280_humidity;BME280_pressure;Samples;Min_cycle;Max_cycle;Signal;HPM_P1;HPM_P2
2024/02/04 00:02:53;;;;;;;2.05;1.00;;;;;;;;;;6160457;28;20042;-77
2024/02/04 00:05:55;;;;;;;2.40;0.95;;;;;;;;;;6159771;28;20054;-77
2024/02/04 00:08:57;;;;;;;0.77;0.65;;;;;;;;;;6154052;28;20174;-77
2024/02/04 00:12:03;;;;;;;0.75;0.73;;;;;;;;;;6162030;28;20051;-78
2024/02/04 00:15:05;;;;;;;1.35;0.50;;;;;;;;;;6160334;28;20097;-76
2024/02/04 00:18:07;;;;;;;0.65;0.60;;;;;;;;;;6160894;28;20050;-77
2024/02/04 00:21:09;;;;;;;0.77;0.70;;;;;;;;;;6139964;28;20053;-75
2024/02/04 00:24:10;;;;;;;0.45;0.45;;;;;;;;;;6160912;28;20046;-79
2024/02/04 00:27:13;;;;;;;0.50;0.35;;;;;;;;;;6157377;28;20051;-75
2024/02/04 00:30:14;;;;;;;0.82;0.50;;;;;;;;;;6147184;28;20057;-76
2024/02/04 00:33:16;;;;;;;1.20;0.40;;;;;;;;;;6154618;28;20055;-79
2024/02/04 00:36:19;;;;;;;0.30;0.30;;;;;;;;;;6138529;28;20039;-77
2024/02/04 00:39:21;;;;;;;0.43;0.30;;;;;;;;;;6142643;28;20219;-75
2024/02/04 00:42:23;;;;;;;0.50;0.40;;;;;;;;;;6155192;28;20046;-77
2024/02/04 00:45:24;;;;;;;0.60;0.40;;;;;;;;;;6142069;28;20043;-78
2024/02/04 00:48:26;;;;;;;0.73;0.40;;;;;;;;;;6139236;28;20984;-77
2024/02/04 00:51:28;;;;;;;0.52;0.50;;;;;;;;;;6156931;28;20162;-77
2024/02/04 00:54:30;;;;;;;0.82;0.40;;;;;;;;;;6138440;28;20077;-76
2024/02/04 00:57:32;;;;;;;0.50;0.50;;;;;;;;;;6155519;28;20722;-77
2024/02/04 01:00:34;;;;;;;0.40;0.30;;;;;;;;;;6156334;28;20054;-78
2024/02/04 01:03:36;;;;;;;0.68;0.43;;;;;;;;;;6152941;28;20051;-79
2024/02/04 01:06:37;;;;;;;0.50;0.50;;;;;;;;;;6137476;28;20425;-76
2024/02/04 01:09:57;;;;;;;0.50;0.40;;;;;;;;;;6141121;28;20122;-77
2024/02/04 01:12:59;;;;;;;0.57;0.50;;;;;;;;;;6156424;28;20047;-76
2024/02/04 01:16:00;;;;;;;0.75;0.40;;;;;;;;;;6155296;28;20128;-78
2024/02/04 01:19:02;;;;;;;0.50;0.50;;;;;;;;;;6157179;28;20051;-78
2024/02/04 01:22:05;;;;;;;0.50;0.40;;;;;;;;;;6131727;28;20053;-77
2024/02/04 01:25:08;;;;;;;0.30;0.30;;;;;;;;;;6140482;28;20126;-76
2024/02/04 01:28:10;;;;;;;0.40;0.40;;;;;;;;;;6134644;28;20043;-78
2024/02/04 01:31:11;;;;;;;0.73;0.50;;;;;;;;;;6161731;28;20053;-75
2024/02/04 01:34:13;;;;;;;0.43;0.40;;;;;;;;;;6154708;28;20050;-78
2024/02/04 01:37:15;;;;;;;0.30;0.30;;;;;;;;;;6143266;28;20050;-77
2024/02/04 01:40:17;;;;;;;0.40;0.40;;;;;;;;;;6157909;28;20049;-76
2024/02/04 01:43:21;;;;;;;0.40;0.30;;;;;;;;;;6157322;28;20062;-78
2024/02/04 01:46:22;;;;;;;0.20;0.20;;;;;;;;;;6159074;28;20046;-77
2024/02/04 01:49:25;;;;;;;1.13;0.30;;;;;;;;;;6137446;28;20085;-75
2024/02/04 01:52:28;;;;;;;1.92;0.32;;;;;;;;;;6161597;28;20047;-78
2024/02/04 01:55:29;;;;;;;0.25;0.25;;;;;;;;;;6157967;28;20938;-78
2024/02/04 01:58:32;;;;;;;0.38;0.30;;;;;;;;;;6140465;28;20043;-76
2024/02/04 02:01:34;;;;;;;0.25;0.20;;;;;;;;;;6158090;28;20123;-77
2024/02/04 02:04:37;;;;;;;0.30;0.30;;;;;;;;;;6156812;28;20053;-77
2024/02/04 02:07:40;;;;;;;0.30;0.30;;;;;;;;;;6160283;28;20093;-75
2024/02/04 02:10:46;;;;;;;;;;;;;;;;;;6158976;28;20054;-75
2024/02/04 02:13:53;;;;;;;0.30;0.30;;;;;;;;;;6145170;28;19958;-78
2024/02/04 02:17:03;;;;;;;0.40;0.40;;;;;;;;;;6148847;28;20051;-77
2024/02/04 02:20:15;;;;;;;0.45;0.40;;;;;;;;;;6162153;23;20061;-77
2024/02/04 02:23:31;;;;;;;0.80;0.40;;;;;;;;;;6116614;28;20746;-77
2024/02/04 02:26:33;;;;;;;0.30;0.30;;;;;;;;;;6103134;28;20075;-77
2024/02/04 02:29:35;;;;;;;0.57;0.45;;;;;;;;;;6117143;28;20194;-77
2024/02/04 02:32:37;;;;;;;1.33;0.70;;;;;;;;;;6112592;28;20386;-77
2024/02/04 02:35:39;;;;;;;2.05;0.63;;;;;;;;;;6121932;28;20098;-77
2024/02/04 02:39:10;;;;;;;0.47;0.47;;;;;;;;;;6096124;28;20047;-77
2024/02/04 02:42:12;;;;;;;1.08;0.70;;;;;;;;;;6086497;28;20146;-77
2024/02/04 02:45:15;;;;;;;0.60;0.50;;;;;;;;;;6108014;28;20426;-78
2024/02/04 02:48:18;;;;;;;0.77;0.70;;;;;;;;;;6126888;28;20048;-78
2024/02/04 02:51:20;;;;;;;0.65;0.65;;;;;;;;;;6116380;28;20044;-78
2024/02/04 02:54:22;;;;;;;0.70;0.70;;;;;;;;;;6110867;28;20043;-77
2024/02/04 02:57:23;;;;;;;0.60;0.60;;;;;;;;;;6085677;28;20043;-77
2024/02/04 03:00:25;;;;;;;0.40;0.40;;;;;;;;;;6113377;28;20043;-78
2024/02/04 03:03:27;;;;;;;1.00;0.80;;;;;;;;;;6109561;28;20047;-77
2024/02/04 03:06:29;;;;;;;0.70;0.63;;;;;;;;;;6110202;28;20189;-77
2024/02/04 03:09:31;;;;;;;1.35;0.50;;;;;;;;;;6104550;28;20055;-77
2024/02/04 03:12:32;;;;;;;0.93;0.60;;;;;;;;;;6117667;28;20055;-77
2024/02/04 03:15:34;;;;;;;0.25;0.25;;;;;;;;;;6129067;28;20046;-77
2024/02/04 03:18:39;;;;;;;0.40;0.30;;;;;;;;;;6129594;28;20591;-78
2024/02/04 03:21:41;;;;;;;0.60;0.40;;;;;;;;;;6123491;28;20443;-77
2024/02/04 03:24:44;;;;;;;0.20;0.20;;;;;;;;;;6120714;28;20265;-77
2024/02/04 03:27:45;;;;;;;0.30;0.30;;;;;;;;;;6111431;28;20055;-77
2024/02/04 03:30:48;;;;;;;0.30;0.30;;;;;;;;;;6103244;28;20054;-78
2024/02/04 03:33:50;;;;;;;0.20;0.20;;;;;;;;;;6128281;28;20078;-78
2024/02/04 03:36:52;;;;;;;0.22;0.17;;;;;;;;;;6117731;28;20039;-77
2024/02/04 03:39:54;;;;;;;0.20;0.20;;;;;;;;;;6107292;28;20506;-77
2024/02/04 03:42:56;;;;;;;0.15;0.15;;;;;;;;;;6092922;28;20039;-77
2024/02/04 03:45:58;;;;;;;0.13;0.13;;;;;;;;;;6127571;28;20051;-77
2024/02/04 03:49:00;;;;;;;0.28;0.28;;;;;;;;;;6130904;28;20054;-76
2024/02/04 03:52:02;;;;;;;0.30;0.30;;;;;;;;;;6126814;28;20052;-77
2024/02/04 03:55:04;;;;;;;0.30;0.30;;;;;;;;;;6106999;28;20054;-77
2024/02/04 03:58:06;;;;;;;0.13;0.13;;;;;;;;;;6129053;28;20046;-77
2024/02/04 04:01:11;;;;;;;0.25;0.25;;;;;;;;;;6122333;28;20123;-78
2024/02/04 04:04:14;;;;;;;0.10;0.10;;;;;;;;;;6128006;28;20132;-77
2024/02/04 04:07:16;;;;;;;0.10;0.10;;;;;;;;;;6121568;28;20047;-78
2024/02/04 04:10:18;;;;;;;0.50;0.10;;;;;;;;;;6124497;28;20050;-77
2024/02/04 04:13:20;;;;;;;0.63;0.10;;;;;;;;;;6119699;28;20079;-78
2024/02/04 04:16:22;;;;;;;0.20;0.10;;;;;;;;;;6124657;28;20102;-77
2024/02/04 04:19:24;;;;;;;0.13;0.10;;;;;;;;;;6111627;28;20047;-77
2024/02/04 04:22:26;;;;;;;0.65;0.10;;;;;;;;;;6122026;28;20048;-77
2024/02/04 04:25:28;;;;;;;0.10;0.10;;;;;;;;;;6117499;28;20056;-77
2024/02/04 04:28:29;;;;;;;0.10;0.10;;;;;;;;;;6121899;28;20063;-77
2024/02/04 04:31:31;;;;;;;2.92;0.20;;;;;;;;;;6115284;28;20070;-76
2024/02/04 04:34:33;;;;;;;0.10;0.10;;;;;;;;;;6125280;28;20101;-77
2024/02/04 04:37:35;;;;;;;0.10;0.10;;;;;;;;;;6098475;28;20052;-77
2024/02/04 04:40:36;;;;;;;0.22;0.22;;;;;;;;;;6119918;28;20429;-77
2024/02/04 04:43:38;;;;;;;0.30;0.10;;;;;;;;;;6119913;28;20934;-77
2024/02/04 04:46:40;;;;;;;0.10;0.10;;;;;;;;;;6123017;28;20507;-78
2024/02/04 04:49:42;;;;;;;0.10;0.10;;;;;;;;;;6126863;28;20051;-78
2024/02/04 04:52:44;;;;;;;0.10;0.10;;;;;;;;;;6123609;28;20054;-78
2024/02/04 04:55:45;;;;;;;0.30;0.28;;;;;;;;;;6121757;28;20067;-78
2024/02/04 04:58:47;;;;;;;0.10;0.10;;;;;;;;;;6117881;28;20569;-77
2024/02/04 05:01:49;;;;;;;0.30;0.10;;;;;;;;;;6134677;28;20058;-77
2024/02/04 05:04:51;;;;;;;0.27;0.27;;;;;;;;;;6102522;28;20051;-77
2024/02/04 05:07:52;;;;;;;0.20;0.20;;;;;;;;;;6118985;28;20130;-77
2024/02/04 05:10:54;;;;;;;0.10;0.10;;;;;;;;;;6111253;28;20062;-77
2024/02/04 05:13:56;;;;;;;0.98;0.10;;;;;;;;;;6104956;28;20068;-77
2024/02/04 05:16:57;;;;;;;1.75;0.20;;;;;;;;;;6125939;28;20441;-78
2024/02/04 05:19:59;;;;;;;0.15;0.15;;;;;;;;;;6101621;28;20126;-78
2024/02/04 05:23:01;;;;;;;0.77;0.17;;;;;;;;;;6103047;28;21254;-78
2024/02/04 05:26:07;;;;;;;0.10;0.10;;;;;;;;;;6126355;28;20082;-78
2024/02/04 05:29:09;;;;;;;1.10;0.10;;;;;;;;;;6120967;28;20082;-78
2024/02/04 05:32:11;;;;;;;0.57;0.15;;;;;;;;;;6120918;28;20048;-78
2024/02/04 05:35:13;;;;;;;0.10;0.10;;;;;;;;;;6127110;28;20059;-77
2024/02/04 05:38:16;;;;;;;0.20;0.20;;;;;;;;;;6123874;28;20520;-78
2024/02/04 05:41:18;;;;;;;;;;;;;;;;;;6110179;28;20066;-78
2024/02/04 05:44:19;;;;;;;1.10;0.73;;;;;;;;;;6121625;28;20021;-78
2024/02/04 05:47:21;;;;;;;1.08;0.65;;;;;;;;;;6124120;28;20063;-78
2024/02/04 05:50:23;;;;;;;1.38;0.98;;;;;;;;;;6121858;28;20201;-78
2024/02/04 05:53:25;;;;;;;1.67;1.10;;;;;;;;;;6122505;28;20058;-78
2024/02/04 05:56:27;;;;;;;0.98;0.88;;;;;;;;;;6122823;28;20078;-78
2024/02/04 05:59:32;;;;;;;1.35;1.00;;;;;;;;;;6124755;28;20150;-78
2024/02/04 06:02:33;;;;;;;2.03;1.15;;;;;;;;;;6119349;28;20055;-78
2024/02/04 06:05:35;;;;;;;2.03;1.25;;;;;;;;;;6124093;28;20058;-77
2024/02/04 06:08:37;;;;;;;1.58;1.17;;;;;;;;;;6121805;28;20136;-76
2024/02/04 06:11:39;;;;;;;1.58;1.00;;;;;;;;;;6122534;28;20059;-77
2024/02/04 06:14:40;;;;;;;1.58;1.20;;;;;;;;;;6114682;28;20050;-77
2024/02/04 06:17:42;;;;;;;1.80;1.08;;;;;;;;;;6126276;28;20043;-80
2024/02/04 06:20:44;;;;;;;1.40;1.00;;;;;;;;;;6108789;28;20541;-79
2024/02/04 06:23:46;;;;;;;1.83;1.23;;;;;;;;;;6106065;28;20174;-79
2024/02/04 06:26:47;;;;;;;1.73;1.52;;;;;;;;;;6123363;28;20055;-79
2024/02/04 06:29:49;;;;;;;1.27;1.08;;;;;;;;;;6123557;28;20055;-79
2024/02/04 06:32:51;;;;;;;1.48;1.10;;;;;;;;;;6119275;28;20134;-77
2024/02/04 06:35:52;;;;;;;2.55;1.30;;;;;;;;;;6124200;28;20450;-78
2024/02/04 06:38:54;;;;;;;2.00;1.55;;;;;;;;;;6101170;28;20094;-77
2024/02/04 06:41:56;;;;;;;1.40;1.20;;;;;;;;;;6101896;28;20087;-78
2024/02/04 06:44:57;;;;;;;1.58;1.38;;;;;;;;;;6118757;28;20054;-78
2024/02/04 06:48:00;;;;;;;3.35;1.50;;;;;;;;;;6110757;28;20051;-78
2024/02/04 06:51:02;;;;;;;1.67;1.33;;;;;;;;;;6125556;28;20051;-79
2024/02/04 06:54:04;;;;;;;1.92;1.40;;;;;;;;;;6123730;28;20058;-79
2024/02/04 06:57:06;;;;;;;2.92;1.73;;;;;;;;;;6104575;28;20046;-78
2024/02/04 07:00:08;;;;;;;2.40;1.52;;;;;;;;;;6121558;28;20039;-78
2024/02/04 07:03:09;;;;;;;1.70;1.30;;;;;;;;;;6110371;28;20331;-79
2024/02/04 07:06:11;;;;;;;1.50;1.40;;;;;;;;;;6097556;28;20051;-81
2024/02/04 07:09:13;;;;;;;1.33;1.23;;;;;;;;;;6127383;28;20554;-79
2024/02/04 07:12:15;;;;;;;2.25;1.50;;;;;;;;;;6121212;28;20087;-79
2024/02/04 07:15:16;;;;;;;2.60;1.48;;;;;;;;;;6109506;28;20050;-78
2024/02/04 07:18:21;;;;;;;1.85;1.63;;;;;;;;;;6123806;28;20115;-79
2024/02/04 07:21:23;;;;;;;1.67;1.33;;;;;;;;;;6106963;28;20044;-79
2024/02/04 07:24:25;;;;;;;2.65;1.23;;;;;;;;;;6122862;28;20057;-80
2024/02/04 07:27:26;;;;;;;2.50;1.30;;;;;;;;;;6122704;28;20429;-79
2024/02/04 07:30:28;;;;;;;1.92;1.25;;;;;;;;;;6123805;28;20527;-79
2024/02/04 07:33:30;;;;;;;2.42;1.52;;;;;;;;;;6108496;28;20410;-79
2024/02/04 07:36:34;;;;;;;1.83;1.10;;;;;;;;;;6123818;28;20074;-79
2024/02/04 07:39:36;;;;;;;1.88;1.15;;;;;;;;;;6122794;28;20051;-79
2024/02/04 07:42:38;;;;;;;1.23;1.10;;;;;;;;;;6111516;28;20047;-79
2024/02/04 07:45:40;;;;;;;1.88;1.10;;;;;;;;;;6108290;28;20058;-79
2024/02/04 07:48:42;;;;;;;0.98;0.88;;;;;;;;;;6123921;28;20105;-79
2024/02/04 07:51:43;;;;;;;1.33;1.20;;;;;;;;;;6132326;28;20175;-79
2024/02/04 07:54:46;;;;;;;2.17;1.20;;;;;;;;;;6111020;28;20518;-79
2024/02/04 07:57:47;;;;;;;1.60;1.00;;;;;;;;;;6112880;28;20050;-80
2024/02/04 08:00:49;;;;;;;1.45;1.17;;;;;;;;;;6131605;28;20051;-80
2024/02/04 08:03:53;;;;;;;1.40;0.83;;;;;;;;;;6114064;28;20043;-79
2024/02/04 08:06:55;;;;;;;1.20;0.80;;;;;;;;;;6095131;28;20051;-79
2024/02/04 08:09:58;;;;;;;1.00;0.85;;;;;;;;;;6131440;28;20043;-79
2024/02/04 08:13:00;;;;;;;1.00;0.60;;;;;;;;;;6124904;28;20050;-79
2024/02/04 08:16:03;;;;;;;0.95;0.70;;;;;;;;;;6123871;28;22003;-79
2024/02/04 08:19:06;;;;;;;0.57;0.57;;;;;;;;;;6114680;28;20054;-79
2024/02/04 08:22:08;;;;;;;0.40;0.40;;;;;;;;;;6126688;28;20366;-79
2024/02/04 08:25:11;;;;;;;1.00;0.47;;;;;;;;;;6129570;28;20050;-79
2024/02/04 08:28:13;;;;;;;0.63;0.30;;;;;;;;;;6130247;28;20129;-80
2024/02/04 08:31:16;;;;;;;0.30;0.30;;;;;;;;;;6132431;28;20046;-81
2024/02/04 08:34:19;;;;;;;0.30;0.30;;;;;;;;;;6108064;28;20043;-79
2024/02/04 08:37:21;;;;;;;0.30;0.30;;;;;;;;;;6126103;28;20410;-79
2024/02/04 08:40:24;;;;;;;0.50;0.30;;;;;;;;;;6121679;28;20529;-79
2024/02/04 08:43:26;;;;;;;1.38;0.50;;;;;;;;;;6117455;28;20112;-80
2024/02/04 08:46:28;;;;;;;0.20;0.20;;;;;;;;;;6124886;28;20525;-80
2024/02/04 08:49:30;;;;;;;0.75;0.50;;;;;;;;;;6106399;28;20052;-81
2024/02/04 08:52:32;;;;;;;0.28;0.28;;;;;;;;;;6135600;28;20051;-79
2024/02/04 08:55:33;;;;;;;0.63;0.25;;;;;;;;;;6116859;28;20502;-81
2024/02/04 08:58:37;;;;;;;0.75;0.10;;;;;;;;;;6131790;28;20086;-80
2024/02/04 09:01:38;;;;;;;0.20;0.20;;;;;;;;;;6134009;28;20620;-80
2024/02/04 09:04:40;;;;;;;0.20;0.20;;;;;;;;;;6127016;28;20050;-81
2024/02/04 09:07:43;;;;;;;0.20;0.20;;;;;;;;;;6110402;28;20043;-81
2024/02/04 09:10:44;;;;;;;0.30;0.30;;;;;;;;;;6085260;28;20514;-79
2024/02/04 09:13:46;;;;;;;0.32;0.22;;;;;;;;;;6126356;28;20047;-79
2024/02/04 09:16:48;;;;;;;0.28;0.28;;;;;;;;;;6126849;28;20066;-79
2024/02/04 09:19:50;;;;;;;0.17;0.17;;;;;;;;;;6089959;28;20050;-80
2024/02/04 09:22:52;;;;;;;0.20;0.20;;;;;;;;;;6129262;28;20051;-78
2024/02/04 09:25:54;;;;;;;0.20;0.20;;;;;;;;;;6121045;28;20054;-78
2024/02/04 09:28:56;;;;;;;0.20;0.20;;;;;;;;;;6105606;28;20043;-79
2024/02/04 09:31:58;;;;;;;0.75;0.20;;;;;;;;;;6130854;28;20063;-80
2024/02/04 09:35:00;;;;;;;0.80;0.30;;;;;;;;;;6124773;28;20103;-79
2024/02/04 09:38:02;;;;;;;0.30;0.30;;;;;;;;;;6127745;28;20133;-81
2024/02/04 09:41:04;;;;;;;0.20;0.20;;;;;;;;;;6116346;28;20142;-82
2024/02/04 09:44:07;;;;;;;0.15;0.15;;;;;;;;;;6104584;28;20306;-80
2024/02/04 09:47:12;;;;;;;0.30;0.20;;;;;;;;;;6126530;28;20464;-80
2024/02/04 09:50:14;;;;;;;0.32;0.28;;;;;;;;;;6113806;28;20055;-81
2024/02/04 09:53:31;;;;;;;0.30;0.30;;;;;;;;;;6117456;28;20040;-81
2024/02/04 09:56:36;;;;;;;0.40;0.30;;;;;;;;;;6105077;28;20054;-81
2024/02/04 09:59:39;;;;;;;0.30;0.30;;;;;;;;;;6125449;28;20059;-82
2024/02/04 10:02:41;;;;;;;0.30;0.30;;;;;;;;;;6132864;28;20159;-81
2024/02/04 10:05:43;;;;;;;0.57;0.30;;;;;;;;;;6121631;28;20064;-81
2024/02/04 10:08:46;;;;;;;0.28;0.25;;;;;;;;;;6090364;28;20558;-81
2024/02/04 10:11:48;;;;;;;0.30;0.30;;;;;;;;;;6117678;28;20039;-81
2024/02/04 10:14:50;;;;;;;0.40;0.30;;;;;;;;;;6138576;28;20043;-82
2024/02/04 10:17:53;;;;;;;0.40;0.28;;;;;;;;;;6114292;28;20047;-82
2024/02/04 10:20:55;;;;;;;0.70;0.45;;;;;;;;;;6121680;28;20050;-81
2024/02/04 10:23:57;;;;;;;0.35;0.35;;;;;;;;;;6085253;28;20047;-81
2024/02/04 10:26:59;;;;;;;0.20;0.20;;;;;;;;;;6120591;28;20074;-80
2024/02/04 10:30:01;;;;;;;0.20;0.20;;;;;;;;;;6100161;28;20105;-80
2024/02/04 10:33:03;;;;;;;0.68;0.50;;;;;;;;;;6116303;28;20409;-81
2024/02/04 10:36:05;;;;;;;0.17;0.17;;;;;;;;;;6121484;28;20544;-80
2024/02/04 10:39:07;;;;;;;0.20;0.20;;;;;;;;;;6115089;28;20043;-81
2024/02/04 10:42:13;;;;;;;0.47;0.47;;;;;;;;;;6111173;28;20588;-80
2024/02/04 10:45:17;;;;;;;0.17;0.17;;;;;;;;;;6122919;28;20055;-80
2024/02/04 10:48:20;;;;;;;0.20;0.20;;;;;;;;;;6099853;28;20585;-80
2024/02/04 10:51:25;;;;;;;;;;;;;;;;;;6113858;28;20059;-80
2024/02/04 10:54:29;;;;;;;0.20;0.20;;;;;;;;;;6110514;28;20136;-81
2024/02/04 10:57:31;;;;;;;0.13;0.10;;;;;;;;;;6100321;28;20067;-80
2024/02/04 11:00:32;;;;;;;1.00;0.80;;;;;;;;;;6131626;28;20059;-80
2024/02/04 11:03:35;;;;;;;0.30;0.30;;;;;;;;;;6109122;28;20506;-81
2024/02/04 11:06:40;;;;;;;1.02;0.80;;;;;;;;;;6105466;28;20058;-80
2024/02/04 11:09:44;;;;;;;0.10;0.10;;;;;;;;;;6111469;28;20135;-79
2024/02/04 11:12:47;;;;;;;0.20;0.20;;;;;;;;;;6093876;28;20358;-80
2024/02/04 11:15:52;;;;;;;0.20;0.20;;;;;;;;;;6122988;28;20055;-81
2024/02/04 11:19:31;;;;;;;0.35;0.20;;;;;;;;;;6120431;28;20134;-81
2024/02/04 11:22:55;;;;;;;0.43;0.30;;;;;;;;;;6098540;28;20487;-80
2024/02/04 11:25:58;;;;;;;0.20;0.20;;;;;;;;;;6108756;28;20540;-79
2024/02/04 11:29:00;;;;;;;;;;;;;;;;;;6127228;28;20051;-80
2024/02/04 11:32:02;;;;;;;0.30;0.25;;;;;;;;;;6114700;28;19926;-80
2024/02/04 11:35:07;;;;;;;0.30;0.30;;;;;;;;;;6116503;29;20054;-80
2024/02/04 11:38:11;;;;;;;0.38;0.38;;;;;;;;;;6141261;28;20174;-79
2024/02/04 11:41:21;;;;;;;;;;;;;;;;;;6128971;28;20066;-80
2024/02/04 11:44:24;;;;;;;0.40;0.40;;;;;;;;;;6136770;28;19922;-80
2024/02/04 11:47:26;;;;;;;;;;;;;;;;;;6134646;28;20055;-80
2024/02/04 11:50:32;;;;;;;0.30;0.30;;;;;;;;;;6133269;28;20017;-80
2024/02/04 11:53:34;;;;;;;0.20;0.20;;;;;;;;;;6126847;28;20050;-80
2024/02/04 11:56:37;;;;;;;0.32;0.32;;;;;;;;;;6127577;28;20085;-82
2024/02/04 11:59:38;;;;;;;0.32;0.20;;;;;;;;;;6150491;28;20058;-82
2024/02/04 12:02:40;;;;;;;0.28;0.20;;;;;;;;;;6129489;28;20078;-82
2024/02/04 12:05:43;;;;;;;0.20;0.20;;;;;;;;;;6126951;28;20058;-81
2024/02/04 12:08:44;;;;;;;0.22;0.22;;;;;;;;;;6121686;28;20043;-82
2024/02/04 12:11:47;;;;;;;0.20;0.20;;;;;;;;;;6127431;28;20101;-81
2024/02/04 12:14:49;;;;;;;0.20;0.20;;;;;;;;;;6131550;28;20050;-80
2024/02/04 12:17:51;;;;;;;0.20;0.20;;;;;;;;;;6129337;28;20047;-80
2024/02/04 12:20:54;;;;;;;1.17;0.65;;;;;;;;;;6132672;28;20051;-80
2024/02/04 12:23:56;;;;;;;0.30;0.20;;;;;;;;;;6129617;28;20043;-80
2024/02/04 12:26:58;;;;;;;0.30;0.30;;;;;;;;;;6133784;28;20055;-81
2024/02/04 12:30:00;;;;;;;0.20;0.20;;;;;;;;;;6130976;28;20047;-80
2024/02/04 12:33:05;;;;;;;0.40;0.40;;;;;;;;;;6123270;28;20047;-79
2024/02/04 12:36:07;;;;;;;0.28;0.20;;;;;;;;;;6128045;28;20055;-80
2024/02/04 12:39:11;;;;;;;0.22;0.20;;;;;;;;;;6148427;28;20054;-80
2024/02/04 12:42:21;;;;;;;0.20;0.20;;;;;;;;;;6125264;28;20050;-81
2024/02/04 12:45:24;;;;;;;0.20;0.20;;;;;;;;;;6128033;28;20083;-79
2024/02/04 12:48:27;;;;;;;0.20;0.20;;;;;;;;;;6130344;28;20157;-79
2024/02/04 12:51:31;;;;;;;0.95;0.20;;;;;;;;;;6115840;28;20047;-81
2024/02/04 12:54:54;;;;;;;0.20;0.20;;;;;;;;;;6121923;28;20126;-81
2024/02/04 12:58:07;;;;;;;0.95;0.17;;;;;;;;;;6128448;28;20401;-81
2024/02/04 13:01:10;;;;;;;;;;;;;;;;;;6127186;28;20070;-81
2024/02/04 13:04:11;;;;;;;0.28;0.20;;;;;;;;;;6124829;28;20345;-80
2024/02/04 13:07:14;;;;;;;0.20;0.20;;;;;;;;;;6132989;28;20055;-80
2024/02/04 13:10:17;;;;;;;0.10;0.10;;;;;;;;;;6136194;28;20047;-80
2024/02/04 13:13:20;;;;;;;0.20;0.20;;;;;;;;;;6152638;28;20058;-80
2024/02/04 13:16:23;;;;;;;0.30;0.20;;;;;;;;;;6148278;28;20165;-79
2024/02/04 13:19:34;;;;;;;0.30;0.30;;;;;;;;;;6123169;28;20109;-79
2024/02/04 13:22:36;;;;;;;0.20;0.20;;;;;;;;;;6143783;28;20051;-80
2024/02/04 13:25:38;;;;;;;0.77;0.50;;;;;;;;;;6144000;28;20130;-81
2024/02/04 13:28:40;;;;;;;0.73;0.20;;;;;;;;;;6130429;28;20059;-79
2024/02/04 13:31:42;;;;;;;0.20;0.20;;;;;;;;;;6126862;28;20051;-80
2024/02/04 13:34:43;;;;;;;0.65;0.20;;;;;;;;;;6114218;28;20402;-80
2024/02/04 13:37:47;;;;;;;0.20;0.20;;;;;;;;;;6133399;28;20051;-80
2024/02/04 13:40:49;;;;;;;0.60;0.25;;;;;;;;;;6147364;28;20043;-80
2024/02/04 13:43:51;;;;;;;0.40;0.28;;;;;;;;;;6132389;28;21151;-79
2024/02/04 13:46:53;;;;;;;0.20;0.20;;;;;;;;;;6151302;28;20509;-80
2024/02/04 13:49:55;;;;;;;0.22;0.17;;;;;;;;;;6130123;28;20051;-81
2024/02/04 13:53:01;;;;;;;0.50;0.30;;;;;;;;;;6131378;28;20059;-81
2024/02/04 13:56:03;;;;;;;0.20;0.20;;;;;;;;;;6126224;28;20554;-81
2024/02/04 13:59:06;;;;;;;4.27;0.30;;;;;;;;;;6114915;28;20058;-81
2024/02/04 14:02:11;;;;;;;1.20;0.30;;;;;;;;;;6133399;28;20494;-81
2024/02/04 14:05:13;;;;;;;1.10;0.80;;;;;;;;;;6130968;28;21264;-80
2024/02/04 14:08:15;;;;;;;0.22;0.20;;;;;;;;;;6137392;28;20055;-80
2024/02/04 14:11:17;;;;;;;0.20;0.20;;;;;;;;;;6137771;28;20485;-80
2024/02/04 14:14:18;;;;;;;0.20;0.10;;;;;;;;;;6135764;28;20421;-80
2024/02/04 14:17:20;;;;;;;0.20;0.20;;;;;;;;;;6140420;28;20517;-80
2024/02/04 14:20:22;;;;;;;0.25;0.25;;;;;;;;;;6132554;28;20051;-80
2024/02/04 14:23:24;;;;;;;0.55;0.20;;;;;;;;;;6131160;28;20043;-81
2024/02/04 14:26:26;;;;;;;0.20;0.20;;;;;;;;;;6134976;28;20497;-80
2024/02/04 14:29:27;;;;;;;0.25;0.25;;;;;;;;;;6130079;28;20062;-80
2024/02/04 14:32:29;;;;;;;0.20;0.20;;;;;;;;;;6141197;28;20219;-80
2024/02/04 14:35:31;;;;;;;0.20;0.20;;;;;;;;;;6130221;28;20043;-80
2024/02/04 14:38:33;;;;;;;0.20;0.20;;;;;;;;;;6130565;28;20043;-80
2024/02/04 14:41:36;;;;;;;0.20;0.20;;;;;;;;;;6129804;28;20047;-79
2024/02/04 14:44:38;;;;;;;1.58;1.48;;;;;;;;;;6136495;28;20129;-80
2024/02/04 14:47:40;;;;;;;0.30;0.30;;;;;;;;;;6144458;28;20126;-79
2024/02/04 14:50:42;;;;;;;0.85;0.20;;;;;;;;;;6129195;28;20047;-80
2024/02/04 14:53:44;;;;;;;0.28;0.20;;;;;;;;;;6130382;28;20418;-81
2024/02/04 14:56:48;;;;;;;0.40;0.22;;;;;;;;;;6130843;28;20122;-80
2024/02/04 14:59:50;;;;;;;0.20;0.20;;;;;;;;;;6131399;28;20055;-81
2024/02/04 15:02:52;;;;;;;0.20;0.20;;;;;;;;;;6134192;28;20043;-80
2024/02/04 15:05:53;;;;;;;0.50;0.35;;;;;;;;;;6129585;28;20055;-81
2024/02/04 15:08:57;;;;;;;1.17;0.50;;;;;;;;;;6129969;28;20580;-81
2024/02/04 15:12:00;;;;;;;0.30;0.30;;;;;;;;;;6131362;28;20636;-80
2024/02/04 15:15:03;;;;;;;0.65;0.40;;;;;;;;;;6127596;28;20054;-78
2024/02/04 15:18:05;;;;;;;0.20;0.20;;;;;;;;;;6130651;28;20550;-79
2024/02/04 15:21:10;;;;;;;0.30;0.30;;;;;;;;;;6134397;28;20181;-80
2024/02/04 15:24:13;;;;;;;0.30;0.30;;;;;;;;;;6143882;28;20060;-80
2024/02/04 15:27:17;;;;;;;0.30;0.20;;;;;;;;;;6135196;28;20332;-81
2024/02/04 15:30:19;;;;;;;0.30;0.30;;;;;;;;;;6126126;28;20047;-81
2024/02/04 15:33:22;;;;;;;0.20;0.20;;;;;;;;;;6135982;28;20050;-80
2024/02/04 15:36:25;;;;;;;0.75;0.20;;;;;;;;;;6145177;28;20210;-79
2024/02/04 15:39:27;;;;;;;0.30;0.30;;;;;;;;;;6125682;28;20074;-80
2024/02/04 15:42:29;;;;;;;0.20;0.20;;;;;;;;;;6146852;28;20083;-80
2024/02/04 15:45:31;;;;;;;0.30;0.30;;;;;;;;;;6146335;28;20054;-81
2024/02/04 15:48:40;;;;;;;0.77;0.47;;;;;;;;;;6125980;28;20051;-80
2024/02/04 15:51:42;;;;;;;0.50;0.43;;;;;;;;;;6136187;28;20047;-81
2024/02/04 15:54:44;;;;;;;0.50;0.50;;;;;;;;;;6131432;28;20048;-80
2024/02/04 15:57:50;;;;;;;0.70;0.70;;;;;;;;;;6129761;28;20480;-81
2024/02/04 16:00:52;;;;;;;0.85;0.60;;;;;;;;;;6138533;28;20047;-81
2024/02/04 16:03:54;;;;;;;0.70;0.50;;;;;;;;;;6149978;28;20051;-82
2024/02/04 16:06:57;;;;;;;0.40;0.40;;;;;;;;;;6148819;28;20051;-82
2024/02/04 16:09:59;;;;;;;0.65;0.50;;;;;;;;;;6132667;28;20051;-82
2024/02/04 16:13:02;;;;;;;0.88;0.30;;;;;;;;;;6147736;28;20043;-82
2024/02/04 16:16:08;;;;;;;1.40;0.40;;;;;;;;;;6147595;28;20138;-81
2024/02/04 16:19:10;;;;;;;0.85;0.30;;;;;;;;;;6151910;28;20118;-82
2024/02/04 16:22:12;;;;;;;0.52;0.50;;;;;;;;;;6153638;28;20054;-82
2024/02/04 16:25:16;;;;;;;0.30;0.30;;;;;;;;;;6122931;28;20044;-82
2024/02/04 16:28:18;;;;;;;0.40;0.28;;;;;;;;;;6155857;28;20067;-81
2024/02/04 16:31:20;;;;;;;0.40;0.30;;;;;;;;;;6130902;28;20516;-82
2024/02/04 16:34:22;;;;;;;0.28;0.28;;;;;;;;;;6135543;28;20054;-82
2024/02/04 16:37:25;;;;;;;0.32;0.30;;;;;;;;;;6136745;28;20043;-79
2024/02/04 16:40:27;;;;;;;1.73;0.30;;;;;;;;;;6130416;28;20055;-79
2024/02/04 16:43:29;;;;;;;0.40;0.25;;;;;;;;;;6133518;28;20062;-80
2024/02/04 16:46:32;;;;;;;0.40;0.20;;;;;;;;;;6130324;28;20514;-80
2024/02/04 16:49:34;;;;;;;0.30;0.30;;;;;;;;;;6129410;28;20051;-80
2024/02/04 16:52:36;;;;;;;0.40;0.40;;;;;;;;;;6136263;28;20485;-80
2024/02/04 16:55:38;;;;;;;0.43;0.32;;;;;;;;;;6137278;28;20058;-81
2024/02/04 16:58:39;;;;;;;1.52;0.45;;;;;;;;;;6136288;28;20066;-80
2024/02/04 17:01:41;;;;;;;0.20;0.20;;;;;;;;;;6139121;28;20055;-80
2024/02/04 17:04:48;;;;;;;0.43;0.30;;;;;;;;;;6123747;28;20643;-80
2024/02/04 17:07:51;;;;;;;0.90;0.60;;;;;;;;;;6139960;28;20039;-80
2024/02/04 17:10:55;;;;;;;0.63;0.40;;;;;;;;;;6156757;28;20047;-80
2024/02/04 17:13:58;;;;;;;0.35;0.35;;;;;;;;;;6137489;28;20552;-80
2024/02/04 17:17:10;;;;;;;0.40;0.40;;;;;;;;;;6135065;28;20043;-79
2024/02/04 17:20:19;;;;;;;0.40;0.40;;;;;;;;;;6137528;28;20178;-82
2024/02/04 17:23:25;;;;;;;0.40;0.40;;;;;;;;;;6155450;28;20227;-81
2024/02/04 17:26:28;;;;;;;0.50;0.50;;;;;;;;;;6107447;28;20039;-80
2024/02/04 17:29:30;;;;;;;0.40;0.40;;;;;;;;;;6136362;28;20429;-80
2024/02/04 17:32:32;;;;;;;1.92;1.02;;;;;;;;;;6140753;28;20485;-80
2024/02/04 17:35:34;;;;;;;1.10;0.57;;;;;;;;;;6159432;28;20513;-79
2024/02/04 17:38:36;;;;;;;0.68;0.50;;;;;;;;;;6133149;28;20062;-82
2024/02/04 17:41:38;;;;;;;0.43;0.40;;;;;;;;;;6148807;28;20052;-80
2024/02/04 17:44:40;;;;;;;0.60;0.60;;;;;;;;;;6133870;28;20736;-79
2024/02/04 17:47:43;;;;;;;0.50;0.50;;;;;;;;;;6118984;28;20051;-79
2024/02/04 17:50:45;;;;;;;0.63;0.50;;;;;;;;;;6132710;28;20100;-78
2024/02/04 17:53:46;;;;;;;0.50;0.50;;;;;;;;;;6133162;28;20058;-78
2024/02/04 17:56:48;;;;;;;1.40;1.20;;;;;;;;;;6145645;28;20043;-78
2024/02/04 17:59:51;;;;;;;0.98;0.50;;;;;;;;;;6138290;28;20051;-78
2024/02/04 18:02:52;;;;;;;1.23;0.40;;;;;;;;;;6140002;28;20046;-78
2024/02/04 18:05:54;;;;;;;0.73;0.63;;;;;;;;;;6132826;28;20043;-78
2024/02/04 18:08:57;;;;;;;0.40;0.40;;;;;;;;;;6121657;28;20047;-78
2024/02/04 18:11:59;;;;;;;0.40;0.40;;;;;;;;;;6131767;28;20091;-78
2024/02/04 18:15:00;;;;;;;0.80;0.38;;;;;;;;;;6134270;28;20050;-79
2024/02/04 18:18:02;;;;;;;0.30;0.30;;;;;;;;;;6129440;28;20537;-78
2024/02/04 18:21:05;;;;;;;0.73;0.45;;;;;;;;;;6133193;28;20649;-79